createdAt,value
2016-11-30T00:01:15.142Z,0
2016-11-30T00:02:31.298Z,0
2016-11-30T00:03:45.969Z,0
2016-11-30T00:05:00.480Z,0
2016-11-30T00:06:15.605Z,0
2016-11-30T00:07:26.165Z,0
2016-11-30T00:08:41.650Z,0
2016-11-30T00:09:56.344Z,0
2016-11-30T00:11:09.807Z,0
2016-11-30T00:12:22.905Z,0
2016-11-30T00:13:37.674Z,0
2016-11-30T00:14:52.854Z,0
2016-11-30T00:16:07.440Z,0
2016-11-30T00:17:23.800Z,0
2016-11-30T00:18:37.410Z,0
2016-11-30T00:19:51.556Z,0
2016-11-30T00:21:05.848Z,0
2016-11-30T00:22:20.200Z,0
2016-11-30T00:23:36.910Z,0
2016-11-30T00:24:51.812Z,0
2016-11-30T00:26:04.738Z,0
2016-11-30T00:27:20.713Z,0
2016-11-30T00:28:36.604Z,0
2016-11-30T00:29:52.957Z,0
2016-11-30T00:31:08.856Z,0
2016-11-30T00:32:24.361Z,0
2016-11-30T00:33:40.355Z,0
2016-11-30T00:34:55.225Z,0
2016-11-30T00:36:12.187Z,0
2016-11-30T00:37:26.566Z,0
2016-11-30T00:38:39.632Z,0
2016-11-30T00:39:54.815Z,0
2016-11-30T00:41:10.596Z,0
2016-11-30T00:42:23.433Z,0
2016-11-30T00:43:39.522Z,0
2016-11-30T00:44:52.743Z,0
2016-11-30T00:46:09.048Z,0
2016-11-30T00:47:25.040Z,0
2016-11-30T00:48:41.403Z,0
2016-11-30T00:49:57.692Z,0
2016-11-30T00:51:12.359Z,0
2016-11-30T00:52:27.368Z,0
2016-11-30T00:53:40.854Z,0
2016-11-30T00:54:57.418Z,0
2016-11-30T00:56:07.742Z,0
2016-11-30T00:57:22.113Z,0
2016-11-30T00:58:37.140Z,0
2016-11-30T00:59:51.624Z,0
2016-11-30T01:01:08.588Z,0
2016-11-30T01:02:25.270Z,0
2016-11-30T01:03:38.717Z,0
2016-11-30T01:04:52.722Z,0
2016-11-30T01:06:09.542Z,0
2016-11-30T01:07:25.278Z,0
2016-11-30T01:08:40.371Z,0
2016-11-30T01:09:55.886Z,0
2016-11-30T01:11:12.649Z,0
2016-11-30T01:12:26.868Z,0
2016-11-30T01:13:41.957Z,0
2016-11-30T01:14:56.652Z,0
2016-11-30T01:16:11.490Z,0
2016-11-30T01:17:24.920Z,0
2016-11-30T01:18:40.163Z,0
2016-11-30T01:19:54.036Z,0
2016-11-30T01:21:10.463Z,0
2016-11-30T01:22:24.421Z,0
2016-11-30T01:23:39.283Z,0
2016-11-30T01:24:52.921Z,0
2016-11-30T01:26:08.461Z,0
2016-11-30T01:27:24.879Z,0
2016-11-30T01:28:39.518Z,0
2016-11-30T01:29:53.967Z,0
2016-11-30T01:31:09.874Z,0
2016-11-30T01:32:24.525Z,0
2016-11-30T01:33:38.984Z,0
2016-11-30T01:34:55.322Z,0
2016-11-30T01:36:08.982Z,0
2016-11-30T01:37:23.593Z,0
2016-11-30T01:38:38.380Z,0
2016-11-30T01:39:54.443Z,0
2016-11-30T01:41:09.116Z,0
2016-11-30T01:42:23.851Z,0
2016-11-30T01:43:36.128Z,0
2016-11-30T01:44:49.462Z,0
2016-11-30T01:46:06.293Z,0
2016-11-30T01:47:19.612Z,0
2016-11-30T01:48:35.945Z,0
2016-11-30T01:49:50.394Z,0
2016-11-30T01:51:06.533Z,0
2016-11-30T01:52:22.860Z,0
2016-11-30T01:53:37.131Z,0
2016-11-30T01:54:53.879Z,0
2016-11-30T01:56:07.372Z,0
2016-11-30T01:57:20.528Z,0
2016-11-30T01:58:35.263Z,0
2016-11-30T01:59:49.659Z,0
2016-11-30T02:01:03.957Z,0
2016-11-30T02:02:15.401Z,0
2016-11-30T02:03:29.020Z,0
2016-11-30T02:04:43.295Z,0
2016-11-30T02:05:58.162Z,0
2016-11-30T02:07:14.261Z,0
2016-11-30T02:08:30.009Z,0
2016-11-30T02:09:45.885Z,0
2016-11-30T02:11:00.553Z,0
2016-11-30T02:12:17.158Z,0
2016-11-30T02:13:33.200Z,0
2016-11-30T02:14:48.839Z,0
2016-11-30T02:16:02.465Z,0
2016-11-30T02:17:18.051Z,0
2016-11-30T02:18:29.838Z,0
2016-11-30T02:19:46.980Z,0
2016-11-30T02:20:59.900Z,0
2016-11-30T02:22:14.625Z,0
2016-11-30T02:23:29.581Z,0
2016-11-30T02:24:46.228Z,0
2016-11-30T02:26:02.765Z,0
2016-11-30T02:27:16.151Z,0
2016-11-30T02:28:27.979Z,0
2016-11-30T02:29:44.445Z,0
2016-11-30T02:31:00.739Z,0
2016-11-30T02:32:17.657Z,0
2016-11-30T02:33:33.718Z,0
2016-11-30T02:34:49.627Z,0
2016-11-30T02:36:04.404Z,0
2016-11-30T02:37:20.537Z,0
2016-11-30T02:38:36.377Z,0
2016-11-30T02:39:51.121Z,0
2016-11-30T02:41:07.015Z,0
2016-11-30T02:42:20.493Z,0
2016-11-30T02:43:37.230Z,0
2016-11-30T02:44:51.029Z,0
2016-11-30T02:46:06.950Z,0
2016-11-30T02:47:21.657Z,0
2016-11-30T02:48:37.935Z,0
2016-11-30T02:49:54.812Z,0
2016-11-30T02:51:11.101Z,0
2016-11-30T02:52:24.561Z,0
2016-11-30T02:53:39.478Z,0
2016-11-30T02:54:55.022Z,0
2016-11-30T02:56:11.322Z,0
2016-11-30T02:57:25.992Z,0
2016-11-30T02:58:41.947Z,0
2016-11-30T02:59:57.350Z,0
2016-11-30T03:01:12.075Z,0
2016-11-30T03:02:28.209Z,0
2016-11-30T03:03:42.183Z,0
2016-11-30T03:04:58.584Z,0
2016-11-30T03:06:13.403Z,0
2016-11-30T03:07:25.334Z,0
2016-11-30T03:08:41.641Z,0
2016-11-30T03:09:54.357Z,0
2016-11-30T03:11:10.286Z,0
2016-11-30T03:12:26.170Z,0
2016-11-30T03:13:40.879Z,0
2016-11-30T03:14:57.598Z,0
2016-11-30T03:16:10.934Z,0
2016-11-30T03:17:27.102Z,0
2016-11-30T03:18:43.463Z,0
2016-11-30T03:19:56.703Z,0
2016-11-30T03:21:11.238Z,0
2016-11-30T03:22:27.455Z,0
2016-11-30T03:23:41.475Z,0
2016-11-30T03:24:56.022Z,0
2016-11-30T03:26:10.634Z,0
2016-11-30T03:27:26.148Z,0
2016-11-30T03:28:37.907Z,0
2016-11-30T03:29:51.553Z,0
2016-11-30T03:31:07.900Z,0
2016-11-30T03:32:22.413Z,0
2016-11-30T03:33:35.880Z,0
2016-11-30T03:34:51.143Z,0
2016-11-30T03:36:04.843Z,0
2016-11-30T03:37:19.674Z,0
2016-11-30T03:38:32.899Z,0
2016-11-30T03:39:49.047Z,0
2016-11-30T03:41:03.714Z,0
2016-11-30T03:42:18.051Z,0
2016-11-30T03:43:33.992Z,0
2016-11-30T03:44:50.028Z,0
2016-11-30T03:46:06.969Z,0
2016-11-30T03:47:23.254Z,0
2016-11-30T03:48:38.736Z,0
2016-11-30T03:49:53.407Z,0
2016-11-30T03:51:09.152Z,0
2016-11-30T03:52:25.215Z,0
2016-11-30T03:53:38.840Z,0
2016-11-30T03:54:50.687Z,0
2016-11-30T03:56:05.571Z,0
2016-11-30T03:57:21.713Z,0
2016-11-30T03:58:37.196Z,0
2016-11-30T03:59:51.988Z,0
2016-11-30T04:01:08.454Z,0
2016-11-30T04:02:23.636Z,0
2016-11-30T04:03:38.796Z,0
2016-11-30T04:04:54.451Z,0
2016-11-30T04:06:09.446Z,0
2016-11-30T04:07:24.127Z,0
2016-11-30T04:08:40.463Z,0
2016-11-30T04:09:53.487Z,0
2016-11-30T04:11:08.174Z,0
2016-11-30T04:12:24.073Z,0
2016-11-30T04:13:40.608Z,0
2016-11-30T04:14:55.873Z,0
2016-11-30T04:16:12.463Z,0
2016-11-30T04:17:28.352Z,0
2016-11-30T04:18:43.883Z,0
2016-11-30T04:20:00.444Z,0
2016-11-30T04:21:13.979Z,0
2016-11-30T04:22:27.514Z,0
2016-11-30T04:23:43.887Z,0
2016-11-30T04:24:58.311Z,0
2016-11-30T04:26:12.925Z,0
2016-11-30T04:27:29.114Z,0
2016-11-30T04:28:45.910Z,0
2016-11-30T04:30:01.394Z,0
2016-11-30T04:31:17.730Z,0
2016-11-30T04:32:32.978Z,0
2016-11-30T04:33:46.279Z,0
2016-11-30T04:35:00.872Z,0
2016-11-30T04:36:14.093Z,0
2016-11-30T04:37:27.113Z,0
2016-11-30T04:38:44.051Z,0
2016-11-30T04:39:57.264Z,0
2016-11-30T04:41:11.613Z,0
2016-11-30T04:42:28.088Z,0
2016-11-30T04:43:42.519Z,0
2016-11-30T04:44:55.660Z,0
2016-11-30T04:46:08.824Z,0
2016-11-30T04:47:25.315Z,0
2016-11-30T04:48:40.384Z,0
2016-11-30T04:49:55.909Z,0
2016-11-30T04:51:11.126Z,0
2016-11-30T04:52:25.869Z,0
2016-11-30T04:53:41.994Z,0
2016-11-30T04:54:56.413Z,0
2016-11-30T04:56:13.047Z,0
2016-11-30T04:57:25.882Z,0
2016-11-30T04:58:40.360Z,0
2016-11-30T04:59:54.949Z,0
2016-11-30T05:01:09.776Z,0
2016-11-30T05:02:24.449Z,0
2016-11-30T05:03:39.686Z,0
2016-11-30T05:04:56.163Z,0
2016-11-30T05:06:12.040Z,0
2016-11-30T05:07:28.229Z,0
2016-11-30T05:08:44.670Z,0
2016-11-30T05:09:59.179Z,0
2016-11-30T05:11:15.968Z,0
2016-11-30T05:12:29.694Z,0
2016-11-30T05:13:44.326Z,0
2016-11-30T05:15:00.483Z,0
2016-11-30T05:16:15.184Z,0
2016-11-30T05:17:27.932Z,0
2016-11-30T05:18:42.673Z,0
2016-11-30T05:19:57.818Z,0
2016-11-30T05:21:11.321Z,0
2016-11-30T05:22:26.186Z,0
2016-11-30T05:23:39.651Z,0
2016-11-30T05:24:51.799Z,0
2016-11-30T05:26:06.476Z,0
2016-11-30T05:27:22.487Z,0
2016-11-30T05:28:36.681Z,0
2016-11-30T05:29:51.567Z,0
2016-11-30T05:31:04.374Z,0
2016-11-30T05:32:18.670Z,0
2016-11-30T05:33:35.522Z,0
2016-11-30T05:34:51.820Z,0
2016-11-30T05:36:06.568Z,0
2016-11-30T05:37:21.337Z,0
2016-11-30T05:38:35.672Z,0
2016-11-30T05:39:47.546Z,0
2016-11-30T05:41:02.552Z,0
2016-11-30T05:42:18.296Z,0
2016-11-30T05:43:34.701Z,0
2016-11-30T05:44:50.601Z,0
2016-11-30T05:46:05.261Z,0
2016-11-30T05:47:21.884Z,0
2016-11-30T05:48:37.672Z,0
2016-11-30T05:49:50.477Z,0
2016-11-30T05:51:05.958Z,0
2016-11-30T05:52:21.056Z,0
2016-11-30T05:53:35.580Z,0
2016-11-30T05:54:47.418Z,0
2016-11-30T05:56:03.678Z,0
2016-11-30T05:57:18.111Z,0
2016-11-30T05:58:31.589Z,0
2016-11-30T05:59:44.399Z,0
2016-11-30T06:01:01.260Z,0
2016-11-30T06:02:16.769Z,0
2016-11-30T06:03:32.452Z,0
2016-11-30T06:04:45.594Z,0
2016-11-30T06:06:00.306Z,0
2016-11-30T06:07:13.563Z,0
2016-11-30T06:08:29.627Z,0
2016-11-30T06:09:46.319Z,0
2016-11-30T06:11:01.021Z,0
2016-11-30T06:12:14.358Z,0
2016-11-30T06:13:29.168Z,0
2016-11-30T06:14:44.089Z,0
2016-11-30T06:16:00.896Z,0
2016-11-30T06:17:16.153Z,0
2016-11-30T06:18:31.506Z,0
2016-11-30T06:19:46.403Z,0
2016-11-30T06:20:59.577Z,0
2016-11-30T06:22:15.223Z,0
2016-11-30T06:23:31.939Z,0
2016-11-30T06:24:46.643Z,0
2016-11-30T06:25:59.853Z,0
2016-11-30T06:27:14.456Z,0
2016-11-30T06:28:30.540Z,0
2016-11-30T06:29:45.220Z,0
2016-11-30T06:31:01.434Z,0
2016-11-30T06:32:16.143Z,0
2016-11-30T06:33:32.057Z,0
2016-11-30T06:34:46.234Z,0
2016-11-30T06:36:01.100Z,0
2016-11-30T06:37:17.675Z,0
2016-11-30T06:38:32.946Z,0
2016-11-30T06:39:48.208Z,0
2016-11-30T06:41:02.484Z,0
2016-11-30T06:42:16.747Z,0
2016-11-30T06:43:31.972Z,0
2016-11-30T06:44:46.171Z,0
2016-11-30T06:46:00.215Z,0
2016-11-30T06:47:13.862Z,0
2016-11-30T06:48:27.403Z,0
2016-11-30T06:49:40.494Z,0
2016-11-30T06:50:56.807Z,0
2016-11-30T06:52:11.528Z,0
2016-11-30T06:53:27.917Z,0
2016-11-30T06:54:43.811Z,0
2016-11-30T06:55:57.999Z,0
2016-11-30T06:57:12.821Z,0
2016-11-30T06:58:25.800Z,0
2016-11-30T06:59:40.316Z,0
2016-11-30T07:00:54.788Z,0
2016-11-30T07:02:09.525Z,0
2016-11-30T07:03:24.490Z,5
2016-11-30T07:04:40.930Z,5
2016-11-30T07:05:54.471Z,5
2016-11-30T07:07:08.421Z,5
2016-11-30T07:08:22.865Z,5
2016-11-30T07:09:39.290Z,5
2016-11-30T07:10:52.100Z,10
2016-11-30T07:12:06.482Z,10
2016-11-30T07:13:22.210Z,10
2016-11-30T07:14:38.219Z,10
2016-11-30T07:15:54.136Z,15
2016-11-30T07:17:09.069Z,15
2016-11-30T07:18:24.079Z,15
2016-11-30T07:19:40.768Z,20
2016-11-30T07:20:54.554Z,20
2016-11-30T07:22:11.812Z,25
2016-11-30T07:23:26.744Z,25
2016-11-30T07:24:43.023Z,30
2016-11-30T07:26:00.195Z,30
2016-11-30T07:27:16.102Z,35
2016-11-30T07:28:32.372Z,35
2016-11-30T07:29:46.743Z,40
2016-11-30T07:31:02.249Z,45
2016-11-30T07:32:18.257Z,45
2016-11-30T07:33:33.346Z,45
2016-11-30T07:34:48.324Z,50
2016-11-30T07:36:03.515Z,50
2016-11-30T07:37:18.328Z,55
2016-11-30T07:38:33.177Z,60
2016-11-30T07:39:49.879Z,60
2016-11-30T07:41:04.593Z,65
2016-11-30T07:42:21.318Z,65
2016-11-30T07:43:38.048Z,70
2016-11-30T07:44:53.674Z,75
2016-11-30T07:46:08.907Z,80
2016-11-30T07:47:24.545Z,80
2016-11-30T07:48:37.525Z,85
2016-11-30T07:49:54.065Z,90
2016-11-30T07:51:08.893Z,95
2016-11-30T07:52:24.377Z,100
2016-11-30T07:53:39.236Z,105
2016-11-30T07:54:54.300Z,110
2016-11-30T07:56:09.116Z,115
2016-11-30T07:57:25.617Z,125
2016-11-30T07:58:41.952Z,135
2016-11-30T07:59:56.961Z,140
2016-11-30T08:01:11.851Z,150
2016-11-30T08:02:27.999Z,160
2016-11-30T08:03:45.009Z,160
2016-11-30T08:05:00.138Z,165
2016-11-30T08:06:13.357Z,165
2016-11-30T08:07:27.796Z,165
2016-11-30T08:08:42.467Z,170
2016-11-30T08:09:55.913Z,170
2016-11-30T08:11:10.428Z,180
2016-11-30T08:12:25.395Z,185
2016-11-30T08:13:40.064Z,190
2016-11-30T08:14:55.362Z,200
2016-11-30T08:16:09.672Z,205
2016-11-30T08:17:25.001Z,205
2016-11-30T08:18:41.149Z,220
2016-11-30T08:19:54.384Z,230
2016-11-30T08:21:10.311Z,245
2016-11-30T08:22:27.039Z,255
2016-11-30T08:23:43.029Z,245
2016-11-30T08:24:58.958Z,250
2016-11-30T08:26:13.563Z,255
2016-11-30T08:27:26.653Z,270
2016-11-30T08:28:42.485Z,285
2016-11-30T08:29:59.075Z,300
2016-11-30T08:31:13.630Z,295
2016-11-30T08:32:28.390Z,300
2016-11-30T08:33:43.252Z,295
2016-11-30T08:35:00.177Z,300
2016-11-30T08:36:13.567Z,300
2016-11-30T08:37:28.647Z,290
2016-11-30T08:38:44.808Z,280
2016-11-30T08:40:00.717Z,285
2016-11-30T08:41:17.184Z,300
2016-11-30T08:42:31.707Z,310
2016-11-30T08:43:48.014Z,315
2016-11-30T08:45:04.294Z,385
2016-11-30T08:46:21.228Z,420
2016-11-30T08:47:36.478Z,470
2016-11-30T08:48:46.880Z,510
2016-11-30T08:50:02.531Z,530
2016-11-30T08:51:16.157Z,500
2016-11-30T08:52:33.106Z,540
2016-11-30T08:53:48.046Z,575
2016-11-30T08:55:04.349Z,675
2016-11-30T08:56:20.149Z,625
2016-11-30T08:57:37.162Z,535
2016-11-30T08:58:53.868Z,635
2016-11-30T09:00:08.709Z,725
2016-11-30T09:01:25.808Z,610
2016-11-30T09:02:42.406Z,780
2016-11-30T09:03:59.135Z,755
2016-11-30T09:05:15.489Z,1010
2016-11-30T09:06:31.153Z,1015
2016-11-30T09:07:47.083Z,890
2016-11-30T09:09:00.813Z,855
2016-11-30T09:10:16.802Z,830
2016-11-30T09:11:33.520Z,710
2016-11-30T09:12:50.065Z,765
2016-11-30T09:14:06.154Z,825
2016-11-30T09:15:22.476Z,880
2016-11-30T09:16:34.704Z,810
2016-11-30T09:17:49.440Z,710
2016-11-30T09:19:05.586Z,755
2016-11-30T09:20:20.897Z,795
2016-11-30T09:21:36.840Z,765
2016-11-30T09:22:53.355Z,815
2016-11-30T09:24:08.074Z,835
2016-11-30T09:25:24.976Z,855
2016-11-30T09:26:39.834Z,890
2016-11-30T09:27:54.623Z,960
2016-11-30T09:29:11.809Z,845
2016-11-30T09:30:27.729Z,875
2016-11-30T09:31:44.369Z,775
2016-11-30T09:32:57.966Z,830
2016-11-30T09:34:15.101Z,880
2016-11-30T09:35:29.646Z,935
2016-11-30T09:36:43.307Z,840
2016-11-30T09:37:59.714Z,900
2016-11-30T09:39:16.515Z,1070
2016-11-30T09:40:30.786Z,870
2016-11-30T09:41:44.293Z,790
2016-11-30T09:42:59.800Z,845
2016-11-30T09:44:16.265Z,855
2016-11-30T09:45:32.697Z,850
2016-11-30T09:46:44.635Z,835
2016-11-30T09:47:57.772Z,895
2016-11-30T09:49:12.047Z,925
2016-11-30T09:50:27.094Z,970
2016-11-30T09:51:43.028Z,1020
2016-11-30T09:52:58.543Z,1055
2016-11-30T09:54:14.643Z,1045
2016-11-30T09:55:30.704Z,950
2016-11-30T09:56:42.577Z,985
2016-11-30T09:57:57.304Z,1020
2016-11-30T09:59:11.664Z,1070
2016-11-30T10:00:27.702Z,1010
2016-11-30T10:01:42.789Z,975
2016-11-30T10:02:56.463Z,845
2016-11-30T10:04:09.331Z,885
2016-11-30T10:05:25.009Z,905
2016-11-30T10:06:41.339Z,865
2016-11-30T10:07:55.849Z,870
2016-11-30T10:09:09.674Z,825
2016-11-30T10:10:25.775Z,770
2016-11-30T10:11:42.107Z,720
2016-11-30T10:12:57.223Z,770
2016-11-30T10:14:13.714Z,800
2016-11-30T10:15:28.683Z,815
2016-11-30T10:16:42.161Z,765
2016-11-30T10:17:55.581Z,805
2016-11-30T10:19:11.817Z,820
2016-11-30T10:20:24.251Z,815
2016-11-30T10:21:38.738Z,825
2016-11-30T10:22:54.137Z,870
2016-11-30T10:24:10.288Z,905
2016-11-30T10:25:24.557Z,820
2016-11-30T10:26:39.660Z,820
2016-11-30T10:27:56.299Z,885
2016-11-30T10:29:13.481Z,940
2016-11-30T10:30:29.958Z,975
2016-11-30T10:31:43.366Z,1015
2016-11-30T10:32:58.615Z,990
2016-11-30T10:34:13.915Z,885
2016-11-30T10:35:28.790Z,770
2016-11-30T10:36:45.184Z,505
2016-11-30T10:37:58.335Z,390
2016-11-30T10:39:13.582Z,310
2016-11-30T10:40:29.007Z,300
2016-11-30T10:41:45.355Z,315
2016-11-30T10:43:01.502Z,300
2016-11-30T10:44:16.548Z,260
2016-11-30T10:45:33.460Z,230
2016-11-30T10:46:48.317Z,225
2016-11-30T10:48:04.275Z,205
2016-11-30T10:49:19.307Z,190
2016-11-30T10:50:34.430Z,170
2016-11-30T10:51:48.861Z,160
2016-11-30T10:53:05.231Z,160
2016-11-30T10:54:20.281Z,145
2016-11-30T10:55:36.010Z,135
2016-11-30T10:56:52.411Z,120
2016-11-30T10:58:07.249Z,120
2016-11-30T10:59:23.475Z,120
2016-11-30T11:00:36.770Z,120
2016-11-30T11:01:52.541Z,110
2016-11-30T11:03:09.413Z,100
2016-11-30T11:04:21.601Z,100
2016-11-30T11:05:36.634Z,105
2016-11-30T11:06:48.729Z,105
2016-11-30T11:08:03.719Z,90
2016-11-30T11:09:15.576Z,80
2016-11-30T11:10:31.965Z,90
2016-11-30T11:11:43.970Z,90
2016-11-30T11:13:00.353Z,95
2016-11-30T11:14:13.977Z,95
2016-11-30T11:15:28.546Z,95
2016-11-30T11:16:44.843Z,90
2016-11-30T11:18:01.301Z,95
2016-11-30T11:19:17.185Z,90
2016-11-30T11:20:33.144Z,95
2016-11-30T11:21:47.936Z,90
2016-11-30T11:23:04.327Z,90
2016-11-30T11:24:19.987Z,85
2016-11-30T11:25:35.066Z,90
2016-11-30T11:26:49.337Z,105
2016-11-30T11:28:06.042Z,95
2016-11-30T11:29:19.322Z,95
2016-11-30T11:30:35.666Z,110
2016-11-30T11:31:50.502Z,100
2016-11-30T11:33:03.857Z,95
2016-11-30T11:34:19.142Z,105
2016-11-30T11:35:35.653Z,130
2016-11-30T11:36:50.177Z,135
2016-11-30T11:38:05.035Z,125
2016-11-30T11:39:21.532Z,130
2016-11-30T11:40:37.730Z,125
2016-11-30T11:41:54.628Z,100
2016-11-30T11:43:10.326Z,105
2016-11-30T11:44:26.901Z,95
2016-11-30T11:45:41.842Z,105
2016-11-30T11:46:57.521Z,125
2016-11-30T11:48:13.640Z,135
2016-11-30T11:49:29.089Z,140
2016-11-30T11:50:44.188Z,140
2016-11-30T11:51:58.724Z,155
2016-11-30T11:53:14.276Z,150
2016-11-30T11:54:29.412Z,135
2016-11-30T11:55:46.103Z,140
2016-11-30T11:57:01.345Z,145
2016-11-30T11:58:18.106Z,135
2016-11-30T11:59:34.609Z,140
2016-11-30T12:00:49.585Z,115
2016-11-30T12:02:01.799Z,120
2016-11-30T12:03:17.448Z,115
2016-11-30T12:04:32.317Z,110
2016-11-30T12:05:46.605Z,100
2016-11-30T12:07:02.939Z,80
2016-11-30T12:08:16.004Z,85
2016-11-30T12:09:28.020Z,95
2016-11-30T12:10:42.981Z,105
2016-11-30T12:11:58.388Z,100
2016-11-30T12:13:11.727Z,115
2016-11-30T12:14:26.644Z,105
2016-11-30T12:15:41.513Z,105
2016-11-30T12:16:55.308Z,120
2016-11-30T12:18:10.405Z,130
2016-11-30T12:19:27.160Z,120
2016-11-30T12:20:41.893Z,110
2016-11-30T12:21:56.319Z,115
2016-11-30T12:23:09.860Z,105
2016-11-30T12:24:25.766Z,115
2016-11-30T12:25:42.940Z,110
2016-11-30T12:26:58.114Z,105
2016-11-30T12:28:13.677Z,120
2016-11-30T12:29:27.271Z,130
2016-11-30T12:30:41.635Z,125
2016-11-30T12:31:58.282Z,115
2016-11-30T12:33:12.019Z,110
2016-11-30T12:34:27.674Z,95
2016-11-30T12:35:44.179Z,90
2016-11-30T12:36:57.750Z,80
2016-11-30T12:38:13.247Z,80
2016-11-30T12:39:28.458Z,70
2016-11-30T12:40:44.775Z,65
2016-11-30T12:42:00.015Z,60
2016-11-30T12:43:16.952Z,70
2016-11-30T12:44:33.284Z,65
2016-11-30T12:45:48.331Z,70
2016-11-30T12:47:04.201Z,70
2016-11-30T12:48:18.679Z,75
2016-11-30T12:49:33.457Z,70
2016-11-30T12:50:50.060Z,75
2016-11-30T12:52:03.697Z,70
2016-11-30T12:53:18.462Z,70
2016-11-30T12:54:34.591Z,80
2016-11-30T12:55:50.664Z,75
2016-11-30T12:57:06.411Z,75
2016-11-30T12:58:21.428Z,75
2016-11-30T12:59:35.231Z,65
2016-11-30T13:00:51.952Z,60
2016-11-30T13:02:06.801Z,60
2016-11-30T13:03:19.617Z,65
2016-11-30T13:04:32.754Z,75
2016-11-30T13:05:49.145Z,70
2016-11-30T13:07:04.414Z,70
2016-11-30T13:08:20.460Z,70
2016-11-30T13:09:34.108Z,70
2016-11-30T13:10:50.912Z,70
2016-11-30T13:12:04.554Z,70
2016-11-30T13:13:18.107Z,65
2016-11-30T13:14:34.446Z,70
2016-11-30T13:15:49.500Z,65
2016-11-30T13:17:05.757Z,60
2016-11-30T13:18:19.402Z,70
2016-11-30T13:19:32.900Z,70
2016-11-30T13:20:47.562Z,70
2016-11-30T13:22:00.959Z,70
2016-11-30T13:23:17.449Z,65
2016-11-30T13:24:31.320Z,65
2016-11-30T13:25:47.671Z,65
2016-11-30T13:27:02.388Z,70
2016-11-30T13:28:18.447Z,75
2016-11-30T13:29:32.885Z,80
2016-11-30T13:30:47.663Z,65
2016-11-30T13:32:01.986Z,65
2016-11-30T13:33:18.299Z,60
2016-11-30T13:34:32.836Z,55
2016-11-30T13:35:47.515Z,60
2016-11-30T13:37:03.975Z,50
2016-11-30T13:38:18.989Z,50
2016-11-30T13:39:32.684Z,65
2016-11-30T13:40:44.621Z,70
2016-11-30T13:42:01.011Z,60
2016-11-30T13:43:15.746Z,60
2016-11-30T13:44:30.855Z,40
2016-11-30T13:45:46.977Z,40
2016-11-30T13:47:03.520Z,35
2016-11-30T13:48:20.509Z,35
2016-11-30T13:49:35.588Z,55
2016-11-30T13:50:51.927Z,55
2016-11-30T13:52:07.028Z,50
2016-11-30T13:53:23.010Z,45
2016-11-30T13:54:37.905Z,40
2016-11-30T13:55:54.086Z,40
2016-11-30T13:57:09.315Z,30
2016-11-30T13:58:24.456Z,35
2016-11-30T13:59:41.565Z,30
2016-11-30T14:00:57.859Z,25
2016-11-30T14:02:13.113Z,25
2016-11-30T14:03:29.078Z,30
2016-11-30T14:04:46.209Z,30
2016-11-30T14:06:01.816Z,35
2016-11-30T14:07:18.393Z,35
2016-11-30T14:08:34.367Z,30
2016-11-30T14:09:49.089Z,30
2016-11-30T14:11:05.808Z,25
2016-11-30T14:12:20.655Z,25
2016-11-30T14:13:37.781Z,20
2016-11-30T14:14:50.590Z,25
2016-11-30T14:16:05.566Z,25
2016-11-30T14:17:20.337Z,25
2016-11-30T14:18:34.252Z,25
2016-11-30T14:19:47.063Z,20
2016-11-30T14:21:01.688Z,15
2016-11-30T14:22:17.455Z,15
2016-11-30T14:23:29.429Z,15
2016-11-30T14:24:43.303Z,20
2016-11-30T14:25:56.733Z,20
2016-11-30T14:27:12.051Z,20
2016-11-30T14:28:26.891Z,15
2016-11-30T14:29:40.612Z,10
2016-11-30T14:30:55.750Z,10
2016-11-30T14:32:10.385Z,10
2016-11-30T14:33:25.572Z,10
2016-11-30T14:34:39.625Z,15
2016-11-30T14:35:56.506Z,10
2016-11-30T14:37:12.588Z,10
2016-11-30T14:38:25.811Z,10
2016-11-30T14:39:42.935Z,10
2016-11-30T14:40:57.455Z,15
2016-11-30T14:42:14.043Z,10
2016-11-30T14:43:29.696Z,10
2016-11-30T14:44:46.022Z,10
2016-11-30T14:46:01.952Z,5
2016-11-30T14:47:15.625Z,5
2016-11-30T14:48:31.768Z,5
2016-11-30T14:49:47.912Z,5
2016-11-30T14:51:01.497Z,5
2016-11-30T14:52:17.521Z,5
2016-11-30T14:53:32.490Z,5
2016-11-30T14:54:47.373Z,10
2016-11-30T14:56:04.413Z,5
2016-11-30T14:57:17.662Z,5
2016-11-30T14:58:31.492Z,5
2016-11-30T14:59:47.913Z,5
2016-11-30T15:01:02.382Z,5
2016-11-30T15:02:17.497Z,5
2016-11-30T15:03:34.007Z,0
2016-11-30T15:04:47.855Z,5
2016-11-30T15:06:02.546Z,0
2016-11-30T15:07:16.221Z,5
2016-11-30T15:08:29.725Z,5
2016-11-30T15:09:44.490Z,0
2016-11-30T15:11:00.939Z,0
2016-11-30T15:12:17.391Z,0
2016-11-30T15:13:32.738Z,5
2016-11-30T15:14:49.380Z,0
2016-11-30T15:16:05.550Z,0
2016-11-30T15:17:20.337Z,0
2016-11-30T15:18:35.056Z,0
2016-11-30T15:19:50.487Z,0
2016-11-30T15:21:05.180Z,0
2016-11-30T15:22:22.145Z,0
2016-11-30T15:23:35.624Z,0
2016-11-30T15:24:52.741Z,0
2016-11-30T15:26:05.772Z,0
2016-11-30T15:27:21.629Z,0
2016-11-30T15:28:35.132Z,0
2016-11-30T15:29:49.995Z,0
2016-11-30T15:31:05.913Z,0
2016-11-30T15:32:22.621Z,0
2016-11-30T15:33:38.957Z,0
2016-11-30T15:34:52.275Z,0
2016-11-30T15:36:08.736Z,0
2016-11-30T15:37:24.047Z,0
2016-11-30T15:38:40.887Z,0
2016-11-30T15:39:57.717Z,0
2016-11-30T15:41:11.597Z,0
2016-11-30T15:42:27.138Z,0
2016-11-30T15:43:43.733Z,0
2016-11-30T15:45:00.474Z,0
2016-11-30T15:46:15.788Z,0
2016-11-30T15:47:30.312Z,0
2016-11-30T15:48:46.603Z,0
2016-11-30T15:50:03.452Z,0
2016-11-30T15:51:18.076Z,0
2016-11-30T15:52:32.659Z,0
2016-11-30T15:53:48.299Z,0
2016-11-30T15:55:02.555Z,0
2016-11-30T15:56:17.307Z,0
2016-11-30T15:57:33.199Z,0
2016-11-30T15:58:48.274Z,0
2016-11-30T16:00:02.707Z,0
2016-11-30T16:01:15.881Z,0
2016-11-30T16:02:29.638Z,0
2016-11-30T16:03:46.097Z,0
2016-11-30T16:05:01.987Z,0
2016-11-30T16:06:16.771Z,0
2016-11-30T16:07:33.540Z,0
2016-11-30T16:08:50.406Z,0
2016-11-30T16:10:03.638Z,0
2016-11-30T16:11:18.869Z,0
2016-11-30T16:12:32.268Z,0
2016-11-30T16:13:48.821Z,0
2016-11-30T16:15:03.500Z,0
2016-11-30T16:16:18.545Z,0
2016-11-30T16:17:33.401Z,0
2016-11-30T16:18:47.437Z,0
2016-11-30T16:20:02.191Z,0
2016-11-30T16:21:17.310Z,0
2016-11-30T16:22:33.259Z,0
2016-11-30T16:23:49.358Z,0
2016-11-30T16:25:06.371Z,0
2016-11-30T16:26:22.646Z,0
2016-11-30T16:27:36.857Z,0
2016-11-30T16:28:53.366Z,0
2016-11-30T16:30:07.973Z,0
2016-11-30T16:31:22.526Z,0
2016-11-30T16:32:35.591Z,0
2016-11-30T16:33:50.806Z,0
2016-11-30T16:35:05.665Z,0
2016-11-30T16:36:18.848Z,0
2016-11-30T16:37:32.242Z,0
2016-11-30T16:38:46.314Z,0
2016-11-30T16:40:02.360Z,0
2016-11-30T16:41:14.677Z,0
2016-11-30T16:42:28.864Z,0
2016-11-30T16:43:43.760Z,0
2016-11-30T16:44:56.894Z,0
2016-11-30T16:46:12.963Z,0
2016-11-30T16:47:29.564Z,0
2016-11-30T16:48:45.310Z,0
2016-11-30T16:50:00.001Z,0
2016-11-30T16:51:15.496Z,0
2016-11-30T16:52:28.903Z,0
2016-11-30T16:53:44.566Z,0
2016-11-30T16:54:59.035Z,0
2016-11-30T16:56:15.600Z,0
2016-11-30T16:57:32.316Z,0
2016-11-30T16:58:47.480Z,0
2016-11-30T16:59:58.056Z,0
2016-11-30T17:01:12.361Z,0
2016-11-30T17:02:25.498Z,0
2016-11-30T17:03:42.477Z,0
2016-11-30T17:04:59.103Z,0
2016-11-30T17:06:15.592Z,0
2016-11-30T17:07:32.465Z,0
2016-11-30T17:08:48.727Z,0
2016-11-30T17:10:03.832Z,0
2016-11-30T17:11:20.429Z,0
2016-11-30T17:12:35.044Z,0
2016-11-30T17:13:49.968Z,0
2016-11-30T17:15:05.908Z,0
2016-11-30T17:16:20.927Z,0
2016-11-30T17:17:33.234Z,0
2016-11-30T17:18:48.006Z,0
2016-11-30T17:20:01.855Z,0
2016-11-30T17:21:16.473Z,0
2016-11-30T17:22:31.459Z,0
2016-11-30T17:23:46.998Z,0
2016-11-30T17:25:02.718Z,0
2016-11-30T17:26:19.177Z,0
2016-11-30T17:27:35.792Z,0
2016-11-30T17:28:52.540Z,0
2016-11-30T17:30:09.133Z,0
2016-11-30T17:31:23.928Z,0
2016-11-30T17:32:39.467Z,0
2016-11-30T17:33:55.762Z,0
2016-11-30T17:35:11.461Z,0
2016-11-30T17:36:27.230Z,0
2016-11-30T17:37:41.831Z,0
2016-11-30T17:38:57.456Z,0
2016-11-30T17:40:12.713Z,0
2016-11-30T17:41:27.882Z,0
2016-11-30T17:42:42.548Z,0
2016-11-30T17:43:57.072Z,0
2016-11-30T17:45:07.266Z,0
2016-11-30T17:46:23.575Z,0
2016-11-30T17:47:39.906Z,0
2016-11-30T17:48:53.047Z,0
2016-11-30T17:50:06.042Z,0
2016-11-30T17:51:22.364Z,0
2016-11-30T17:52:37.603Z,0
2016-11-30T17:53:52.278Z,0
2016-11-30T17:55:05.859Z,0
2016-11-30T17:56:18.310Z,0
2016-11-30T17:57:34.609Z,0
2016-11-30T17:58:49.760Z,0
2016-11-30T18:00:02.675Z,0
2016-11-30T18:01:16.628Z,0
2016-11-30T18:02:32.262Z,0
2016-11-30T18:03:48.386Z,0